NCAR-RAP Real-Time Weather Data

Output produced by METARs form (10 April 2020  07:11 UTC)
found at http://weather.rap.ucar.edu/surface/
 
KCLE 100651Z 29013G21KT 10SM SCT036 SCT045 SCT085 03/M03 A2968 RMK AO2 PK WND 30026/0552 SLP056 T00331033 $